Time;durP1;ratioP1;P1;durP2;ratioP2;P2;SDS_P1;SDS_P2;PMS_P1;PMS_P2;Temp;Humidity;BMP_temperature;BMP_pressure;BME280_temperature;BME280_humidity;BME280_pressure;Samples;Min_cycle;Max_cycle;Signal;HPM_P1;HPM_P2
2022/10/19 00:00:04;;;;;;;21.17;12.30;;;;;;;12.14;87.23;101002.01;2135411;82;21072;-76
2022/10/19 00:03:05;;;;;;;17.60;12.68;;;;;;;12.06;87.06;100998.78;2137595;82;21022;-76
2022/10/19 00:06:33;;;;;;;18.62;11.55;;;;;;;11.99;87.09;100993.23;2137294;82;21051;-76
2022/10/19 00:09:34;;;;;;;15.25;12.05;;;;;;;11.96;87.05;100999.36;2137286;82;21065;-76
2022/10/19 00:12:35;;;;;;;16.85;12.45;;;;;;;11.85;86.64;101002.63;2135634;82;20986;-75
2022/10/19 00:15:40;;;;;;;15.32;11.45;;;;;;;11.79;86.55;101005.84;2131230;82;20990;-78
2022/10/19 00:18:43;;;;;;;16.55;11.60;;;;;;;11.68;86.43;101010.05;2131631;82;20995;-76
2022/10/19 00:21:45;;;;;;;20.82;13.28;;;;;;;11.62;86.51;101008.84;2132150;82;21093;-76
2022/10/19 00:24:46;;;;;;;22.32;11.50;;;;;;;11.55;86.71;101004.30;2134172;82;21640;-76
2022/10/19 00:27:47;;;;;;;18.85;12.60;;;;;;;11.47;86.61;101006.37;2135363;82;21624;-77
2022/10/19 00:30:48;;;;;;;22.02;13.50;;;;;;;11.39;86.71;101004.97;2114469;82;20974;-84
2022/10/19 00:33:50;;;;;;;20.30;13.35;;;;;;;11.31;86.88;101015.50;2133112;82;21006;-76
2022/10/19 00:36:51;;;;;;;20.30;14.15;;;;;;;11.24;86.91;101005.98;2137719;82;21013;-76
2022/10/19 00:39:52;;;;;;;19.77;14.25;;;;;;;11.18;86.92;101010.07;2139684;82;21064;-76
2022/10/19 00:42:56;;;;;;;20.72;14.10;;;;;;;11.14;87.17;100999.37;2133469;82;21010;-76
2022/10/19 00:45:57;;;;;;;20.37;15.75;;;;;;;11.06;87.07;101009.91;2131653;82;21052;-75
2022/10/19 00:49:10;;;;;;;24.82;14.03;;;;;;;10.98;87.14;101000.52;2132627;82;21029;-76
2022/10/19 00:52:15;;;;;;;20.08;14.98;;;;;;;10.94;87.15;101003.97;2089797;84;21010;-77
2022/10/19 00:55:16;;;;;;;22.67;16.05;;;;;;;10.90;87.14;101006.59;2111517;82;21017;-77
2022/10/19 00:58:18;;;;;;;24.05;16.02;;;;;;;10.88;87.24;101011.20;2134860;82;21032;-76
2022/10/19 01:01:22;;;;;;;23.52;14.70;;;;;;;10.88;87.41;101002.41;2136164;82;21107;-77
2022/10/19 01:04:25;;;;;;;29.02;15.48;;;;;;;10.87;87.23;101005.55;2132875;82;21056;-76
2022/10/19 01:07:27;;;;;;;21.75;14.58;;;;;;;10.84;87.11;101008.97;2132011;82;21030;-76
2022/10/19 01:10:52;;;;;;;24.75;15.10;;;;;;;10.81;87.08;101007.44;2134829;82;21124;-83
2022/10/19 01:14:29;;;;;;;26.85;15.45;;;;;;;10.77;87.17;101003.42;2131967;82;21031;-80
2022/10/19 01:17:42;;;;;;;22.62;16.10;;;;;;;10.74;87.19;101003.22;2132614;82;21030;-75
2022/10/19 01:21:09;;;;;;;24.75;15.20;;;;;;;10.72;87.31;101001.20;2137908;82;20990;-76
2022/10/19 01:24:33;;;;;;;24.12;14.60;;;;;;;10.71;87.24;101000.03;2126691;82;21545;-78
2022/10/19 01:27:49;;;;;;;20.40;15.23;;;;;;;10.63;87.18;100996.77;2119643;83;20971;-76
2022/10/19 01:31:16;;;;;;;19.67;14.58;;;;;;;10.59;87.19;100998.05;2126360;83;21067;-75
2022/10/19 01:34:41;;;;;;;27.27;15.10;;;;;;;10.50;87.22;100990.94;2125230;83;21069;-78
2022/10/19 01:37:56;;;;;;;24.90;16.87;;;;;;;10.45;87.63;100991.39;2119660;83;21571;-75
2022/10/19 01:41:15;;;;;;;22.40;17.75;;;;;;;10.43;87.81;100993.84;2117984;83;21057;-75
2022/10/19 01:44:42;;;;;;;21.20;15.63;;;;;;;10.41;87.88;100993.14;2124365;83;21049;-81
2022/10/19 01:47:51;;;;;;;20.55;15.35;;;;;;;10.39;87.63;100993.30;2124561;83;20975;-76
2022/10/19 01:51:15;;;;;;;25.68;16.52;;;;;;;10.38;87.86;100994.77;2119275;83;21004;-76
2022/10/19 01:54:18;;;;;;;25.62;15.83;;;;;;;10.41;88.28;100997.95;2122437;83;21490;-76
2022/10/19 01:57:33;;;;;;;25.23;16.25;;;;;;;10.47;88.50;101001.84;2121312;83;21599;-76
2022/10/19 02:00:37;;;;;;;23.40;16.50;;;;;;;10.53;89.00;100988.86;2127550;83;21634;-76
2022/10/19 02:03:39;;;;;;;26.17;18.00;;;;;;;10.60;89.16;100987.77;2131157;83;21073;-78
2022/10/19 02:06:41;;;;;;;27.37;18.32;;;;;;;10.63;89.47;100983.50;2121110;83;21128;-77
2022/10/19 02:09:42;;;;;;;30.55;19.80;;;;;;;10.67;89.72;100984.89;2129977;83;21032;-86
2022/10/19 02:12:44;;;;;;;26.48;19.65;;;;;;;10.71;90.18;100976.97;2125886;83;21033;-75
2022/10/19 02:15:50;;;;;;;33.50;21.93;;;;;;;10.75;90.36;100977.01;2122734;83;21060;-76
2022/10/19 02:18:54;;;;;;;29.25;21.57;;;;;;;10.80;90.29;100983.71;2128716;83;21018;-76
2022/10/19 02:21:56;;;;;;;31.87;19.52;;;;;;;10.81;90.57;100981.39;2091718;84;20998;-75
2022/10/19 02:24:57;;;;;;;38.30;21.90;;;;;;;10.85;90.62;100977.47;2069061;84;21061;-78
2022/10/19 02:28:00;;;;;;;33.18;20.37;;;;;;;10.85;90.54;100968.19;2063880;86;21055;-76
2022/10/19 02:31:02;;;;;;;35.00;19.98;;;;;;;10.85;90.60;100976.15;2134100;82;21610;-76
2022/10/19 02:34:03;;;;;;;32.93;20.50;;;;;;;10.87;90.62;100979.00;2139917;82;21097;-82
2022/10/19 02:37:05;;;;;;;37.53;20.43;;;;;;;10.88;90.71;100972.70;2128896;82;21076;-85
2022/10/19 02:40:08;;;;;;;30.08;21.00;;;;;;;10.90;90.74;100973.89;2089573;84;21077;-78
2022/10/19 02:43:18;;;;;;;31.65;21.75;;;;;;;10.89;90.68;100972.20;2090523;84;21490;-81
2022/10/19 02:46:42;;;;;;;24.95;19.85;;;;;;;10.89;90.67;100971.70;2090820;84;21041;-76
2022/10/19 02:49:46;;;;;;;33.45;21.20;;;;;;;10.90;90.62;100971.23;2049952;85;21097;-75
2022/10/19 02:52:47;;;;;;;28.73;19.80;;;;;;;10.90;90.63;100969.91;2069634;85;21555;-76
2022/10/19 02:55:49;;;;;;;28.25;19.52;;;;;;;10.86;90.53;100969.84;2071658;85;21097;-78
2022/10/19 02:58:51;;;;;;;34.50;19.10;;;;;;;10.82;90.60;100973.79;2065873;86;21090;-76
2022/10/19 03:01:54;;;;;;;31.35;19.77;;;;;;;10.77;90.73;100966.26;2131529;82;21414;-78
2022/10/19 03:04:57;;;;;;;30.43;18.92;;;;;;;10.76;90.81;100968.58;2138354;82;21001;-75
2022/10/19 03:07:59;;;;;;;28.12;19.30;;;;;;;10.76;90.90;100967.25;2139404;82;21033;-76
2022/10/19 03:11:00;;;;;;;31.68;19.73;;;;;;;10.73;90.86;100964.39;2137885;82;21006;-78
2022/10/19 03:14:01;;;;;;;32.30;20.43;;;;;;;10.70;90.81;100968.67;2135084;82;21045;-75
2022/10/19 03:17:03;;;;;;;28.45;20.45;;;;;;;10.67;90.84;100964.98;2133377;82;20975;-76
2022/10/19 03:20:06;;;;;;;30.35;20.20;;;;;;;10.62;90.80;100954.47;2132325;82;20977;-75
2022/10/19 03:23:08;;;;;;;36.58;20.97;;;;;;;10.61;90.84;100962.89;2137601;82;21600;-76
2022/10/19 03:26:14;;;;;;;37.58;21.57;;;;;;;10.59;90.90;100964.88;2139058;82;21876;-78
2022/10/19 03:29:18;;;;;;;30.77;20.92;;;;;;;10.58;91.01;100961.86;2132970;82;21496;-76
2022/10/19 03:32:19;;;;;;;28.20;20.45;;;;;;;10.58;91.16;100961.03;2128265;82;21078;-76
2022/10/19 03:35:20;;;;;;;35.60;21.37;;;;;;;10.55;91.05;100956.36;2135597;82;21025;-78
2022/10/19 03:38:21;;;;;;;30.35;20.88;;;;;;;10.52;90.96;100955.33;2135389;82;21021;-84
2022/10/19 03:41:27;;;;;;;32.55;21.33;;;;;;;10.52;90.89;100961.12;2131196;82;21300;-76
2022/10/19 03:44:28;;;;;;;32.17;20.95;;;;;;;10.41;90.83;100955.50;2130053;82;21068;-80
2022/10/19 03:47:29;;;;;;;30.50;20.00;;;;;;;10.41;90.83;100955.50;2133563;82;21104;-85
2022/10/19 03:50:30;;;;;;;30.75;20.50;;;;;;;10.39;90.80;100958.81;2129745;82;21117;-76
2022/10/19 03:53:32;;;;;;;31.82;20.82;;;;;;;10.36;90.74;100952.48;2135730;82;21165;-76
2022/10/19 03:56:35;;;;;;;34.15;20.08;;;;;;;10.31;90.81;100950.25;2138463;82;21044;-77
2022/10/19 03:59:36;;;;;;;34.00;20.85;;;;;;;10.28;90.91;100950.54;2129514;82;21027;-75
2022/10/19 04:02:37;;;;;;;28.45;20.60;;;;;;;10.28;90.95;100957.17;2132316;82;21053;-76
2022/10/19 04:05:38;;;;;;;30.80;20.68;;;;;;;10.25;90.87;100957.43;2136474;82;21061;-78
2022/10/19 04:08:39;;;;;;;33.28;20.90;;;;;;;10.24;90.90;100948.28;2134946;82;21010;-75
2022/10/19 04:11:41;;;;;;;36.63;21.12;;;;;;;10.21;90.90;100952.05;2137730;82;21058;-79
2022/10/19 04:14:42;;;;;;;31.20;20.80;;;;;;;10.21;90.79;100950.72;2133758;82;21520;-75
2022/10/19 04:17:43;;;;;;;30.62;19.80;;;;;;;10.16;90.75;100954.30;2134677;82;21128;-77
2022/10/19 04:20:44;;;;;;;34.48;21.45;;;;;;;10.15;90.77;100952.63;2132115;82;21085;-76
2022/10/19 04:23:45;;;;;;;34.03;20.52;;;;;;;10.13;90.75;100949.77;2129502;82;21105;-77
2022/10/19 04:26:52;;;;;;;34.48;21.20;;;;;;;10.12;90.88;100954.25;2128707;83;20994;-76
2022/10/19 04:29:53;;;;;;;35.68;22.02;;;;;;;10.13;91.01;100958.56;2127861;83;20974;-76
2022/10/19 04:32:54;;;;;;;38.08;22.58;;;;;;;10.14;91.11;100964.23;2130918;83;21069;-81
2022/10/19 04:36:01;;;;;;;37.73;22.15;;;;;;;10.14;91.09;100956.27;2123447;83;21057;-75
2022/10/19 04:39:04;;;;;;;39.80;20.92;;;;;;;10.13;91.19;100959.05;2132036;83;22361;-76
2022/10/19 04:42:05;;;;;;;36.80;22.10;;;;;;;10.10;91.21;100948.24;2131560;83;20993;-77
2022/10/19 04:45:07;;;;;;;30.52;22.30;;;;;;;9.93;91.53;100938.37;2127123;83;21432;-74
2022/10/19 04:48:08;;;;;;;40.48;24.10;;;;;;;10.03;91.92;100955.94;2129260;83;21622;-82
2022/10/19 04:51:10;;;;;;;35.35;21.75;;;;;;;10.03;91.92;100955.94;2132506;83;21014;-76
2022/10/19 04:54:11;;;;;;;42.17;22.10;;;;;;;10.01;91.70;100949.11;2129734;83;21025;-75
2022/10/19 04:57:12;;;;;;;35.88;21.57;;;;;;;10.01;91.70;100949.11;2132259;83;21517;-76
2022/10/19 05:00:16;;;;;;;36.13;21.35;;;;;;;10.02;91.70;100955.61;2130629;83;21041;-75
2022/10/19 05:03:17;;;;;;;38.48;21.10;;;;;;;9.99;91.77;100961.17;2129415;83;21511;-78
2022/10/19 05:06:18;;;;;;;32.90;20.95;;;;;;;9.99;91.77;100962.98;2134756;83;21567;-75
2022/10/19 05:09:20;;;;;;;35.08;21.40;;;;;;;9.99;91.77;100962.98;2133105;83;21061;-76
2022/10/19 05:12:26;;;;;;;36.38;22.32;;;;;;;10.00;91.92;100962.03;2131973;83;21568;-76
2022/10/19 05:15:29;;;;;;;34.23;21.52;;;;;;;9.92;92.32;100936.72;2127704;83;21072;-77
2022/10/19 05:18:33;;;;;;;34.15;22.40;;;;;;;9.92;92.32;100936.72;2125225;83;21018;-76
2022/10/19 05:21:35;;;;;;;37.10;23.25;;;;;;;9.93;91.99;100931.25;2102540;83;20999;-77
2022/10/19 05:24:36;;;;;;;39.98;21.82;;;;;;;10.00;92.22;100939.49;2130103;82;21053;-78
2022/10/19 05:27:38;;;;;;;35.50;22.52;;;;;;;10.06;92.23;100949.03;2137084;82;21084;-78
2022/10/19 05:30:39;;;;;;;34.48;21.57;;;;;;;10.07;92.28;100951.18;2134067;82;21002;-70
2022/10/19 05:33:42;;;;;;;33.88;22.22;;;;;;;10.07;92.32;100951.18;2127550;82;21524;-71
2022/10/19 05:36:43;;;;;;;34.45;20.97;;;;;;;10.08;92.31;100955.53;2127328;82;21002;-70
2022/10/19 05:39:44;;;;;;;30.12;19.70;;;;;;;10.10;92.35;100958.35;2128311;82;21531;-69
2022/10/19 05:42:46;;;;;;;31.05;19.30;;;;;;;10.09;92.37;100963.32;2127270;82;21523;-68
2022/10/19 05:45:47;;;;;;;28.15;18.67;;;;;;;10.09;92.37;100963.32;2130465;82;20982;-69
2022/10/19 05:48:48;;;;;;;30.85;17.55;;;;;;;10.07;92.61;100967.09;2130233;82;21378;-68
2022/10/19 05:51:50;;;;;;;27.90;17.45;;;;;;;10.07;92.61;100967.09;2130523;82;21033;-68
2022/10/19 05:54:52;;;;;;;26.33;16.95;;;;;;;10.07;92.41;100972.39;2112675;82;21045;-67
2022/10/19 05:57:54;;;;;;;27.67;16.17;;;;;;;10.03;92.31;100967.05;2131186;82;21021;-68
2022/10/19 06:00:58;;;;;;;29.87;15.80;;;;;;;10.09;92.29;100987.68;2128275;82;21009;-68
2022/10/19 06:04:00;;;;;;;24.65;14.45;;;;;;;10.09;92.29;100987.68;2131910;82;21402;-69
2022/10/19 06:07:01;;;;;;;20.35;15.28;;;;;;;10.10;92.09;100995.97;2137331;82;21438;-68
2022/10/19 06:10:03;;;;;;;22.73;14.90;;;;;;;10.07;92.04;100990.95;2133412;82;21030;-68
2022/10/19 06:13:04;;;;;;;20.43;13.43;;;;;;;10.07;92.12;100992.28;2129110;82;21580;-70
2022/10/19 06:16:10;;;;;;;23.38;13.08;;;;;;;10.07;92.12;100992.28;2132695;82;21026;-68
2022/10/19 06:19:11;;;;;;;19.37;12.47;;;;;;;10.09;91.78;101004.92;2129471;82;21076;-68
2022/10/19 06:22:12;;;;;;;21.68;11.43;;;;;;;10.11;91.51;101004.30;2135453;82;21060;-68
2022/10/19 06:25:13;;;;;;;16.57;10.88;;;;;;;10.11;91.51;101004.30;2104368;82;21018;-68
2022/10/19 06:28:15;;;;;;;24.98;10.60;;;;;;;10.01;91.48;100990.20;2088334;84;21010;-70
2022/10/19 06:31:16;;;;;;;16.62;9.78;;;;;;;10.14;91.23;101014.62;2095706;84;21037;-68
2022/10/19 06:34:18;;;;;;;17.70;9.68;;;;;;;10.14;90.73;101014.62;2091489;83;22453;-69
2022/10/19 06:37:19;;;;;;;14.50;8.93;;;;;;;10.14;90.73;101014.62;2092348;84;21082;-77
2022/10/19 06:40:20;;;;;;;15.10;8.45;;;;;;;10.15;90.48;101009.65;2097398;83;21049;-77
2022/10/19 06:43:21;;;;;;;14.80;8.25;;;;;;;10.15;90.48;101009.65;2057203;84;20983;-77
2022/10/19 06:46:25;;;;;;;18.32;8.53;;;;;;;10.17;90.42;101006.37;2081934;84;21033;-77
2022/10/19 06:49:26;;;;;;;19.82;8.80;;;;;;;10.21;90.42;101008.24;2104645;84;21099;-77
2022/10/19 06:52:27;;;;;;;14.80;7.47;;;;;;;10.24;90.34;101013.26;2098594;84;21038;-77
2022/10/19 06:55:28;;;;;;;17.27;7.90;;;;;;;10.21;90.15;101009.08;2101697;84;21029;-77
2022/10/19 06:58:30;;;;;;;12.33;7.42;;;;;;;10.29;90.04;101016.36;2100266;82;21044;-77
2022/10/19 07:01:31;;;;;;;15.13;8.08;;;;;;;10.34;89.91;101019.92;2077801;84;21660;-78
2022/10/19 07:04:32;;;;;;;17.40;8.40;;;;;;;10.37;89.77;101018.30;2102327;84;21028;-77
2022/10/19 07:07:34;;;;;;;11.85;7.03;;;;;;;10.42;89.81;101020.88;2104006;84;21017;-77
2022/10/19 07:10:36;;;;;;;13.48;7.10;;;;;;;10.46;89.38;101026.22;2105959;84;21029;-77
2022/10/19 07:13:38;;;;;;;10.68;6.58;;;;;;;10.50;89.52;101028.95;2101746;84;21061;-77
2022/10/19 07:16:39;;;;;;;12.65;6.33;;;;;;;10.59;89.51;101033.88;2105211;82;21040;-77
2022/10/19 07:19:40;;;;;;;16.60;7.70;;;;;;;10.69;89.52;101032.02;2102536;82;21045;-77
2022/10/19 07:22:41;;;;;;;19.12;6.83;;;;;;;10.77;89.12;101045.40;2102971;84;21128;-77
2022/10/19 07:25:42;;;;;;;12.78;6.40;;;;;;;10.85;88.73;101043.84;2122941;82;21093;-77
2022/10/19 07:28:46;;;;;;;13.35;5.22;;;;;;;10.87;88.54;101040.53;2130011;82;21021;-77
2022/10/19 07:31:47;;;;;;;12.15;6.17;;;;;;;10.91;88.32;101047.24;2132066;82;21037;-77
2022/10/19 07:34:49;;;;;;;10.45;5.22;;;;;;;10.95;88.25;101041.97;2129829;82;21030;-77
2022/10/19 07:37:53;;;;;;;10.53;5.12;;;;;;;10.92;87.39;101048.41;2134289;82;21077;-78
2022/10/19 07:41:05;;;;;;;15.30;5.85;;;;;;;10.89;87.21;101047.88;2133931;82;21108;-77
2022/10/19 07:44:07;;;;;;;13.62;5.50;;;;;;;10.83;87.05;101044.48;2126215;82;21378;-79
2022/10/19 07:47:08;;;;;;;10.30;4.90;;;;;;;10.81;87.27;101043.78;2122790;82;21516;-78
2022/10/19 07:50:10;;;;;;;16.40;5.85;;;;;;;10.83;87.43;101049.78;2126278;82;21486;-78
2022/10/19 07:53:14;;;;;;;12.13;4.80;;;;;;;10.84;87.03;101048.80;2125086;82;21461;-78
2022/10/19 07:56:22;;;;;;;11.48;5.22;;;;;;;10.81;86.74;101044.61;2127556;82;21066;-76
2022/10/19 07:59:23;;;;;;;17.92;4.90;;;;;;;10.81;87.05;101048.59;2126357;82;20982;-77
2022/10/19 08:02:24;;;;;;;10.10;5.03;;;;;;;10.89;86.92;101051.85;2109985;82;21085;-78
2022/10/19 08:05:25;;;;;;;8.28;4.83;;;;;;;10.94;86.95;101053.09;2101412;82;20982;-81
2022/10/19 08:08:27;;;;;;;11.73;4.95;;;;;;;10.97;86.68;101057.27;2117787;82;21050;-77
2022/10/19 08:11:32;;;;;;;10.13;5.30;;;;;;;11.03;86.65;101050.54;2128638;82;21081;-77
2022/10/19 08:14:34;;;;;;;12.05;4.90;;;;;;;11.09;86.59;101053.43;2128901;82;21065;-77
2022/10/19 08:17:39;;;;;;;8.70;4.72;;;;;;;11.15;86.40;101051.54;2122400;82;21025;-77
2022/10/19 08:20:43;;;;;;;9.93;4.42;;;;;;;11.18;85.89;101055.73;2128618;82;21544;-77
2022/10/19 08:23:44;;;;;;;8.68;4.40;;;;;;;11.20;85.83;101046.59;2120884;82;21073;-79
2022/10/19 08:26:49;;;;;;;8.68;4.37;;;;;;;11.25;85.78;101069.23;2130691;82;21073;-76
2022/10/19 08:29:50;;;;;;;11.63;4.72;;;;;;;11.23;85.24;101065.39;2134619;82;21120;-77
2022/10/19 08:32:51;;;;;;;16.32;4.92;;;;;;;11.21;84.94;101068.70;2132953;82;21044;-77
2022/10/19 08:35:55;;;;;;;10.60;4.65;;;;;;;11.20;85.04;101056.39;2130782;82;21112;-78
2022/10/19 08:38:57;;;;;;;8.58;4.28;;;;;;;11.24;84.76;101056.95;2131436;82;21018;-77
2022/10/19 08:42:20;;;;;;;10.63;4.92;;;;;;;11.33;84.50;101054.73;2128278;82;21029;-77
2022/10/19 08:45:29;;;;;;;8.93;4.20;;;;;;;11.36;84.27;101060.57;2086788;82;21089;-78
2022/10/19 08:48:35;;;;;;;10.03;4.30;;;;;;;11.46;84.27;101059.20;2125942;82;21089;-78
2022/10/19 08:51:40;;;;;;;12.45;4.35;;;;;;;11.55;84.17;101059.63;2135776;82;21072;-78
2022/10/19 08:54:58;;;;;;;7.70;3.42;;;;;;;11.55;83.49;101060.95;2131314;82;21034;-83
2022/10/19 08:58:31;;;;;;;12.23;4.08;;;;;;;11.61;83.61;101065.66;2135076;82;21078;-78
2022/10/19 09:01:58;;;;;;;10.93;3.52;;;;;;;11.73;83.24;101062.28;2125893;82;21069;-78
2022/10/19 09:05:13;;;;;;;6.65;2.87;;;;;;;11.76;82.30;101060.65;2114933;82;21627;-77
2022/10/19 09:08:17;;;;;;;5.28;2.92;;;;;;;11.79;81.84;101061.67;2119108;82;21014;-78
2022/10/19 09:11:39;;;;;;;12.60;3.77;;;;;;;11.87;81.78;101060.95;2104489;82;21038;-78
2022/10/19 09:15:04;;;;;;;8.85;3.30;;;;;;;11.96;81.69;101056.04;2129568;82;21434;-78
2022/10/19 09:18:25;;;;;;;11.85;3.22;;;;;;;12.08;81.26;101058.83;2139754;82;21033;-77
2022/10/19 09:21:49;;;;;;;8.23;3.12;;;;;;;12.17;80.85;101059.73;2135162;82;20997;-78
2022/10/19 09:24:59;;;;;;;7.33;2.62;;;;;;;12.29;80.43;101062.97;2095082;82;21149;-77
2022/10/19 09:28:36;;;;;;;12.05;2.70;;;;;;;12.27;77.74;101067.10;2131319;82;21113;-77
2022/10/19 09:31:42;;;;;;;7.35;2.20;;;;;;;12.24;78.99;101066.08;2103688;81;21025;-81
2022/10/19 09:34:53;;;;;;;5.83;2.15;;;;;;;12.19;78.61;101074.19;2126510;82;21073;-77
2022/10/19 09:37:55;;;;;;;6.75;2.60;;;;;;;12.19;78.42;101080.38;2127371;82;21070;-77
2022/10/19 09:41:17;;;;;;;2.70;1.77;;;;;;;12.25;78.12;101081.08;2125841;82;21601;-77
2022/10/19 09:44:19;;;;;;;6.12;1.92;;;;;;;12.24;77.50;101079.39;2136887;82;21065;-77
2022/10/19 09:47:37;;;;;;;7.03;2.52;;;;;;;12.24;77.47;101081.22;2111538;82;21053;-77
2022/10/19 09:50:43;;;;;;;3.50;2.00;;;;;;;12.40;77.36;101080.52;2129204;82;21018;-78
2022/10/19 09:53:50;;;;;;;4.03;1.75;;;;;;;12.61;77.76;101081.48;2128241;82;21517;-77
2022/10/19 09:56:56;;;;;;;5.58;1.72;;;;;;;12.65;76.35;101082.86;2123650;82;20991;-77
2022/10/19 09:59:57;;;;;;;6.70;1.85;;;;;;;12.67;75.71;101080.85;2112969;82;21569;-76
2022/10/19 10:02:58;;;;;;;1.85;1.30;;;;;;;12.65;75.86;101078.36;2129479;82;21562;-77
2022/10/19 10:06:16;;;;;;;4.17;1.40;;;;;;;12.76;75.08;101083.42;2128378;82;20989;-77
2022/10/19 10:09:26;;;;;;;3.77;1.57;;;;;;;12.80;75.22;101087.93;2125601;82;21538;-79
2022/10/19 10:12:27;;;;;;;3.77;1.20;;;;;;;12.73;72.99;101089.06;2085729;84;20987;-77
2022/10/19 10:15:36;;;;;;;5.83;2.08;;;;;;;12.76;74.00;101095.91;2068747;84;21116;-76
2022/10/19 10:18:57;;;;;;;4.45;1.90;;;;;;;12.72;73.49;101092.70;2068487;84;21049;-78
2022/10/19 10:21:59;;;;;;;4.12;1.80;;;;;;;12.78;74.74;101089.91;2059449;86;21643;-77
2022/10/19 10:25:02;;;;;;;5.78;1.67;;;;;;;12.69;73.50;101083.70;2131515;82;21539;-77
2022/10/19 10:28:25;;;;;;;4.45;1.45;;;;;;;12.51;74.55;101097.07;2123426;83;21552;-78
2022/10/19 10:31:28;;;;;;;5.33;1.70;;;;;;;12.38;74.13;101088.65;2134052;83;21052;-77
2022/10/19 10:34:45;;;;;;;5.17;3.20;;;;;;;12.29;74.54;101086.42;2129283;83;21013;-78
2022/10/19 10:37:47;;;;;;;6.42;1.92;;;;;;;12.31;75.03;101086.28;2131585;83;21065;-78
2022/10/19 10:41:06;;;;;;;4.37;2.05;;;;;;;12.44;75.13;101088.52;2134449;83;21018;-78
2022/10/19 10:44:21;;;;;;;6.17;1.82;;;;;;;12.61;74.57;101080.98;2131881;83;21014;-78
2022/10/19 10:47:24;;;;;;;2.25;1.30;;;;;;;12.71;73.67;101083.56;2124232;83;20997;-79
2022/10/19 10:50:31;;;;;;;5.90;1.57;;;;;;;12.70;73.15;101073.41;2134301;83;20986;-78
2022/10/19 10:53:46;;;;;;;4.65;1.37;;;;;;;12.70;72.44;101081.40;2133319;83;21069;-81
2022/10/19 10:57:07;;;;;;;2.40;1.07;;;;;;;12.75;72.07;101075.58;2130693;83;21053;-77
2022/10/19 11:00:16;;;;;;;2.42;1.15;;;;;;;12.73;71.25;101070.93;2128373;83;21643;-77
2022/10/19 11:03:27;;;;;;;4.03;1.37;;;;;;;12.71;70.70;101063.08;2131512;83;21529;-78
2022/10/19 11:06:31;;;;;;;5.37;1.87;;;;;;;12.63;69.70;101071.52;2128384;83;20994;-78
2022/10/19 11:09:40;;;;;;;12.00;2.25;;;;;;;12.51;69.43;101083.77;2133604;83;21631;-78
2022/10/19 11:12:46;;;;;;;2.90;1.50;;;;;;;12.41;70.39;101080.35;2123791;83;21545;-77
2022/10/19 11:15:55;;;;;;;2.50;1.25;;;;;;;12.31;70.32;101087.61;2131758;83;21079;-78
2022/10/19 11:19:20;;;;;;;5.12;1.50;;;;;;;12.25;70.70;101082.91;2130156;83;21092;-79
2022/10/19 11:22:33;;;;;;;3.10;1.12;;;;;;;12.20;70.74;101094.50;2133086;83;21045;-81
2022/10/19 11:25:45;;;;;;;3.12;1.25;;;;;;;12.14;70.94;101087.97;2120010;83;21676;-77
2022/10/19 11:29:01;;;;;;;3.62;1.30;;;;;;;12.11;71.27;101087.78;2117592;83;21053;-77
2022/10/19 11:32:04;;;;;;;2.52;1.42;;;;;;;12.13;71.33;101092.93;2119490;83;21542;-78
2022/10/19 11:35:26;;;;;;;6.42;1.85;;;;;;;12.08;71.45;101088.09;2124330;83;21079;-67
2022/10/19 11:38:39;;;;;;;4.92;2.15;;;;;;;12.03;70.97;101085.05;2115668;83;21134;-70
2022/10/19 11:42:13;;;;;;;2.35;1.25;;;;;;;11.98;71.25;101087.32;2123192;83;21002;-69
2022/10/19 11:45:40;;;;;;;4.62;1.52;;;;;;;12.00;71.43;101090.67;2125365;83;21125;-71
2022/10/19 11:49:04;;;;;;;1.87;1.70;;;;;;;12.05;71.62;101088.86;2110972;83;21109;-70
2022/10/19 11:52:46;;;;;;;3.92;1.65;;;;;;;12.11;71.61;101087.78;2117213;83;21616;-76
2022/10/19 11:56:04;;;;;;;1.80;1.30;;;;;;;12.11;71.46;101090.44;2121855;83;21034;-78
2022/10/19 11:59:40;;;;;;;8.45;1.85;;;;;;;12.09;71.05;101089.75;2115487;83;22241;-76
2022/10/19 12:03:11;;;;;;;4.12;1.67;;;;;;;12.10;71.36;101086.09;2124204;83;21054;-76
2022/10/19 12:06:51;;;;;;;2.80;1.30;;;;;;;12.07;71.14;101084.23;2113669;83;21006;-77
2022/10/19 12:10:21;;;;;;;2.00;1.23;;;;;;;12.04;71.07;101078.73;2121684;83;21081;-76
2022/10/19 12:13:39;;;;;;;3.98;1.15;;;;;;;12.05;70.25;101079.55;2104115;83;21018;-76
2022/10/19 12:16:48;;;;;;;3.27;1.30;;;;;;;12.04;70.29;101085.38;2121078;83;21109;-77
2022/10/19 12:19:54;;;;;;;1.90;1.22;;;;;;;12.11;70.52;101082.45;2101352;83;21038;-78
2022/10/19 12:22:58;;;;;;;7.67;1.70;;;;;;;12.09;68.86;101080.94;2117073;83;21006;-76
2022/10/19 12:26:03;;;;;;;4.80;1.80;;;;;;;12.06;69.82;101090.56;2114137;83;21639;-76
2022/10/19 12:29:13;;;;;;;7.08;2.40;;;;;;;12.07;69.91;101092.22;2116064;83;21124;-76
2022/10/19 12:32:18;;;;;;;3.58;1.57;;;;;;;12.02;69.68;101088.70;2113391;83;21064;-76
2022/10/19 12:36:01;;;;;;;3.95;1.57;;;;;;;11.97;69.80;101090.98;2120154;82;21045;-76
2022/10/19 12:39:16;;;;;;;1.95;1.07;;;;;;;11.86;69.82;101086.72;2099045;83;21028;-77
2022/10/19 12:42:23;;;;;;;3.30;1.82;;;;;;;11.73;70.22;101083.55;2122398;83;21096;-76
2022/10/19 12:45:34;;;;;;;4.72;2.25;;;;;;;11.65;70.35;101088.78;2120627;82;21065;-77
2022/10/19 12:48:38;;;;;;;3.27;1.70;;;;;;;11.57;70.86;101085.56;2115649;83;21390;-76
2022/10/19 12:51:46;;;;;;;4.72;2.05;;;;;;;11.59;71.30;101091.55;2089349;84;21090;-78
2022/10/19 12:54:47;;;;;;;4.45;1.87;;;;;;;11.65;71.57;101088.78;2121848;82;20994;-76
2022/10/19 12:57:59;;;;;;;5.47;1.65;;;;;;;11.71;71.36;101092.66;2118970;83;20983;-76
2022/10/19 13:01:04;;;;;;;1.95;1.50;;;;;;;11.71;71.42;101086.84;2090995;83;21486;-77
2022/10/19 13:04:34;;;;;;;3.72;1.80;;;;;;;11.72;71.35;101096.52;2115835;83;21632;-77
2022/10/19 13:07:36;;;;;;;3.40;2.20;;;;;;;11.70;71.45;101091.00;2118126;83;21077;-76
2022/10/19 13:10:37;;;;;;;3.20;1.90;;;;;;;11.65;71.70;101082.14;2124270;83;21291;-76
2022/10/19 13:14:02;;;;;;;4.33;1.80;;;;;;;11.65;71.78;101090.94;2117382;83;20986;-76
2022/10/19 13:17:03;;;;;;;4.47;1.77;;;;;;;11.65;71.91;101080.81;2112835;83;21465;-74
2022/10/19 13:20:19;;;;;;;3.40;1.85;;;;;;;11.72;72.07;101077.08;2103480;83;21061;-76
2022/10/19 13:23:33;;;;;;;3.33;1.98;;;;;;;11.77;72.09;101082.75;2122410;83;21041;-77
2022/10/19 13:26:35;;;;;;;3.60;1.95;;;;;;;11.80;71.98;101093.95;2113086;82;21103;-75
2022/10/19 13:29:43;;;;;;;5.55;1.92;;;;;;;11.83;72.00;101091.48;2103785;83;21023;-75
2022/10/19 13:32:44;;;;;;;6.53;2.70;;;;;;;11.81;71.96;101082.81;2121602;83;20967;-75
2022/10/19 13:36:01;;;;;;;5.42;2.00;;;;;;;11.81;71.99;101092.11;2118679;83;21086;-75
2022/10/19 13:39:08;;;;;;;4.20;1.82;;;;;;;11.82;72.06;101087.95;2118287;83;21043;-73
2022/10/19 13:42:27;;;;;;;3.90;1.60;;;;;;;11.85;72.16;101085.05;2115692;83;21110;-75
2022/10/19 13:45:28;;;;;;;8.45;1.90;;;;;;;11.89;72.22;101078.93;2118705;83;21030;-79
2022/10/19 13:48:50;;;;;;;3.52;1.82;;;;;;;11.90;72.08;101089.91;2088734;84;21081;-75
2022/10/19 13:52:20;;;;;;;5.35;1.92;;;;;;;11.95;72.17;101076.16;2105905;83;21466;-73
2022/10/19 13:55:46;;;;;;;4.97;1.70;;;;;;;11.99;72.05;101077.52;2126510;83;21061;-77
2022/10/19 13:59:16;;;;;;;3.72;1.37;;;;;;;11.96;72.06;101078.65;2114011;83;21006;-74
2022/10/19 14:03:01;;;;;;;5.95;1.75;;;;;;;11.97;72.23;101081.67;2037462;86;21021;-72
2022/10/19 14:06:33;;;;;;;7.53;1.77;;;;;;;11.97;72.26;101077.68;2046890;83;21624;-74
2022/10/19 14:10:05;;;;;;;4.37;2.15;;;;;;;11.90;72.17;101077.93;2114542;83;21097;-75
2022/10/19 14:13:13;;;;;;;5.53;1.98;;;;;;;11.87;72.33;101081.73;2115877;83;21526;-73
2022/10/19 14:16:22;;;;;;;5.78;2.60;;;;;;;11.87;72.60;101075.58;2127184;83;20966;-78
2022/10/19 14:19:51;;;;;;;4.78;2.10;;;;;;;11.90;72.66;101075.27;2103643;83;21018;-75
2022/10/19 14:22:53;;;;;;;3.85;2.15;;;;;;;11.95;72.84;101065.52;2119834;83;22199;-78